Whittemore, IA (50598)

10:57 PM CST on February 06, 2016 (GMT -0600)
West Bend | | Change Station
CLOSE
Current Station
Personal Weather Station
Location: West Bend, IA
Elevation: 1198 ft
Nearby Weather Stations
Active Advisory: Blizzard Watch

Elev 1198 ft 42.96 °N, 94.45 °W | Updated 26 seconds ago

Fog
Fog
31.1 °F
Feels Like 31 °F
N
2.9
Wind Variable Wind from WSW
Gusts 4.9 mph

Today
High -- | Low -- °F
--% Chance of Precip.
Yesterday
High -- | Low -- °F
Precip. -- in
Pressure 29.86 in
Visibility 10.0 miles
Clouds Scattered Clouds 11000 ft
Windchill 31 °F
Dew Point 24 °F
Humidity 74%
Rainfall 0.02 in
Snow Depth Not available.
7:27 AM 5:36 PM
Waning Crescent, 3% visible
METAR KAXA 070435Z AUTO 22011KT 10SM SCT110 M00/M03 A2986 RMK AO2
Pressure 29.86 in
Visibility 10.0 miles
Clouds Scattered Clouds 11000 ft
Windchill 31 °F
Dew Point 24 °F
Humidity 74%
Rainfall 0.02 in
Snow Depth Not available.
7:27 AM 5:36 PM
Waning Crescent, 3% visible
METAR KAXA 070435Z AUTO 22011KT 10SM SCT110 M00/M03 A2986 RMK AO2

10-Day Weather Forecast

Almanac

Astronomy

Feb. 06, 2016 Rise Set
Actual Time
Civil Twilight
Nautical Twilight
Astronomical Twilight
Moon
Length of Visible Light
Length of Day
Tomorrow will be .
, % of the Moon is Illuminated

Today's Extremes

State Highs State Lows

Community

WunderPhotos

Upload Photos

1,891,157 photos uploaded!

WunderBlog® & News

Nearby

Air Quality

  Air Quality AQ Index Pollutant
Not available.

Snow Depth

Station Depth Elevation

Earthquake Activity

City Distance Mag. Time & Date
Minimum magnitude displayed is 2.5.

Coastal Water Temperatures

Place Temperature

Stations

Nearby Weather Stations

Station Location Temp. Windchill Dew Point Humidity Wind Precip. Elev Updated Type
                   

Watches & Warnings

Blizzard Watch
Issued: 9:56 PM CST Feb. 6, 2016 – National Weather Service

... Blizzard watch remains in effect from Sunday afternoon through
Monday afternoon...

* timing... late Sunday afternoon through Monday afternoon.

* Storm total snow accumulations... up to 2 inches with locally
higher amounts.

* Winds/visibility... northwest wind 30 to 40 mph with gusts to
near 50 mph. Visibilities may drop below one quarter mile for an
extended period with near whiteout conditions possible at times.

* Impacts... considerable blowing and drifting snow can create
treacherous travel conditions and even lead to nearly
impossible travel in some areas.

Precautionary/preparedness actions...
a blizzard watch means there is a potential for falling and/or
blowing snow with strong winds and extremely poor visibilities.
This can lead to whiteout conditions and make travel very
dangerous.



Fab